createdAt,value
2023-01-21T08:01:08.723Z,102814.47
2023-01-21T08:03:39.080Z,102817.09
2023-01-21T08:06:11.685Z,102823.28
2023-01-21T08:08:40.675Z,102819.72
2023-01-21T08:11:11.714Z,102811.75
2023-01-21T08:13:41.800Z,102827.59
2023-01-21T08:16:16.939Z,102820.56
2023-01-21T08:18:46.727Z,102833.72
2023-01-21T08:21:24.643Z,102836.34
2023-01-21T08:23:54.075Z,102844.28
2023-01-21T08:26:25.611Z,102850.41
2023-01-21T08:28:56.585Z,102847.78
2023-01-21T08:31:27.692Z,102845.97
2023-01-21T08:33:57.932Z,102845.06
2023-01-21T08:36:27.140Z,102855.56
2023-01-21T08:38:58.790Z,102852.81
2023-01-21T08:41:28.106Z,102851.94
2023-01-21T08:43:57.176Z,102846.63
2023-01-21T08:46:28.532Z,102861.56
2023-01-21T08:48:58.069Z,102865.97
2023-01-21T08:51:27.661Z,102870.28
2023-01-21T08:53:58.491Z,102867.56
2023-01-21T08:56:27.735Z,102862.25
2023-01-21T08:58:58.766Z,102869.19
2023-01-21T09:01:29.307Z,102869.09
2023-01-21T09:03:58.967Z,102880.47
2023-01-21T09:06:30.508Z,102883.91
2023-01-21T09:09:00.319Z,102882.81
2023-01-21T09:11:31.283Z,102876.50
2023-01-21T09:14:03.840Z,102880.00
2023-01-21T09:16:34.179Z,102879.06
2023-01-21T09:19:04.381Z,102879.94
2023-01-21T09:21:35.881Z,102885.19
2023-01-21T09:24:05.226Z,102886.00
2023-01-21T09:26:34.897Z,102892.03
2023-01-21T09:29:04.899Z,102882.91
2023-01-21T09:31:34.954Z,102889.78
2023-01-21T09:34:06.556Z,102880.69
2023-01-21T09:36:37.037Z,102884.19
2023-01-21T09:39:08.426Z,102872.41
2023-01-21T09:41:40.688Z,102881.16
2023-01-21T09:44:27.708Z,102871.34
2023-01-21T09:47:08.428Z,102883.41
2023-01-21T09:49:45.975Z,102884.91
2023-01-21T09:52:28.742Z,102885.47
2023-01-21T09:55:00.496Z,102890.88
2023-01-21T09:58:18.690Z,102882.81
2023-01-21T10:00:54.004Z,102898.50
2023-01-21T10:03:35.524Z,102900.03
2023-01-21T10:06:32.175Z,102907.22
2023-01-21T10:09:33.129Z,102892.72
2023-01-21T10:12:25.238Z,102895.19
2023-01-21T10:15:26.030Z,102898.72
2023-01-21T10:18:01.383Z,102895.09
2023-01-21T10:20:37.721Z,102886.31
2023-01-21T10:23:18.232Z,102890.75
2023-01-21T10:25:50.206Z,102881.84
2023-01-21T10:28:24.796Z,102885.50
2023-01-21T10:30:58.460Z,102882.06
2023-01-21T10:33:32.391Z,102897.03
2023-01-21T10:36:46.926Z,102901.84
2023-01-21T10:39:32.831Z,102899.34
2023-01-21T10:42:30.038Z,102905.69
2023-01-21T10:45:08.399Z,102892.34
2023-01-21T10:47:48.362Z,102901.81
2023-01-21T10:50:34.412Z,102888.53
2023-01-21T10:53:18.337Z,102886.13
2023-01-21T10:56:18.476Z,102892.94
2023-01-21T10:58:52.639Z,102881.78
2023-01-21T11:01:29.454Z,102884.72
2023-01-21T11:04:05.469Z,102883.31
2023-01-21T11:06:36.771Z,102884.00
2023-01-21T11:09:13.336Z,102891.97
2023-01-21T11:11:43.014Z,102886.72
2023-01-21T11:14:12.012Z,102892.97
2023-01-21T11:16:47.695Z,102877.38
2023-01-21T11:19:24.221Z,102875.72
2023-01-21T11:22:03.909Z,102881.00
2023-01-21T11:24:45.446Z,102873.19
2023-01-21T11:27:22.400Z,102869.06
2023-01-21T11:29:51.867Z,102873.28
2023-01-21T11:32:27.550Z,102861.72
2023-01-21T11:35:05.878Z,102863.31
2023-01-21T11:37:36.010Z,102864.13
2023-01-21T11:40:20.777Z,102850.84
2023-01-21T11:42:51.754Z,102858.38
2023-01-21T11:45:32.823Z,102842.16
2023-01-21T11:48:02.197Z,102839.06
2023-01-21T11:50:34.802Z,102828.31
2023-01-21T11:53:13.182Z,102829.94
2023-01-21T11:55:47.357Z,102817.59
2023-01-21T11:58:21.618Z,102823.50
2023-01-21T12:00:53.151Z,102823.38
2023-01-21T12:03:26.101Z,102820.56
2023-01-21T12:05:55.692Z,102821.59
2023-01-21T12:08:27.890Z,102814.66
2023-01-21T12:11:02.146Z,102813.16
2023-01-21T12:13:42.296Z,102809.69
2023-01-21T12:16:33.381Z,102806.09
2023-01-21T12:19:28.111Z,102822.16
2023-01-21T12:22:29.320Z,102813.16
2023-01-21T12:25:23.848Z,102813.78
2023-01-21T12:28:28.207Z,102812.75
2023-01-21T12:31:12.305Z,102812.66
2023-01-21T12:33:51.149Z,102808.47
2023-01-21T12:36:29.199Z,102805.78
2023-01-21T12:39:17.281Z,102806.06
2023-01-21T12:41:56.589Z,102808.72
2023-01-21T12:44:36.464Z,102813.38
2023-01-21T12:47:17.845Z,102819.38
2023-01-21T12:50:17.195Z,102816.78
2023-01-21T12:52:58.531Z,102822.28
2023-01-21T12:55:39.866Z,102819.47
2023-01-21T12:58:17.232Z,102827.09
2023-01-21T13:00:51.524Z,102828.34
2023-01-21T13:03:30.663Z,102818.66
2023-01-21T13:06:07.605Z,102823.75
2023-01-21T13:08:52.452Z,102821.97
2023-01-21T13:11:24.177Z,102823.63
2023-01-21T13:14:18.125Z,102827.97
2023-01-21T13:16:53.692Z,102817.56
2023-01-21T13:19:22.095Z,102821.75
2023-01-21T13:21:59.205Z,102829.19
2023-01-21T13:24:34.968Z,102834.28
2023-01-21T13:27:17.881Z,102826.19
2023-01-21T13:29:56.221Z,102821.78
2023-01-21T13:32:42.154Z,102830.34
2023-01-21T13:35:30.727Z,102818.44
2023-01-21T13:38:19.511Z,102821.63
2023-01-21T13:41:03.539Z,102823.25
2023-01-21T13:44:11.147Z,102837.72
2023-01-21T13:47:01.444Z,102830.63
2023-01-21T13:50:18.510Z,102830.69
2023-01-21T13:53:12.645Z,102842.34
2023-01-21T13:56:03.847Z,102840.88
2023-01-21T13:58:43.273Z,102848.94
2023-01-21T14:01:19.340Z,102844.59
2023-01-21T14:03:56.944Z,102850.94
2023-01-21T14:06:34.681Z,102852.47
2023-01-21T14:09:08.808Z,102851.94
2023-01-21T14:11:45.376Z,102864.09
2023-01-21T14:15:11.294Z,102866.59
2023-01-21T14:18:17.508Z,102858.09
2023-01-21T14:21:23.825Z,102865.19
2023-01-21T14:24:12.390Z,102868.84
2023-01-21T14:27:15.548Z,102867.25
2023-01-21T14:29:52.307Z,102867.28
2023-01-21T14:32:28.954Z,102864.94
2023-01-21T14:35:15.244Z,102863.09
2023-01-21T14:37:53.125Z,102861.41
2023-01-21T14:40:30.250Z,102869.28
2023-01-21T14:42:59.220Z,102858.81
2023-01-21T14:45:57.410Z,102860.69
2023-01-21T14:48:41.364Z,102856.97
2023-01-21T14:51:22.345Z,102857.00
2023-01-21T14:53:53.688Z,102860.63
2023-01-21T14:56:27.829Z,102858.00
2023-01-21T14:58:59.780Z,102859.72
2023-01-21T15:01:40.231Z,102860.59
2023-01-21T15:04:25.955Z,102859.63
2023-01-21T15:06:58.830Z,102865.84
2023-01-21T15:09:34.128Z,102869.34
2023-01-21T15:12:08.314Z,102873.78
2023-01-21T15:14:41.725Z,102871.09
2023-01-21T15:18:03.470Z,102856.19
2023-01-21T15:20:49.669Z,102863.38
2023-01-21T15:23:37.794Z,102863.41
2023-01-21T15:26:30.444Z,102859.88
2023-01-21T15:29:32.940Z,102844.91
2023-01-21T15:32:23.355Z,102846.59
2023-01-21T15:34:55.760Z,102851.00
2023-01-21T15:37:26.847Z,102850.13
2023-01-21T15:40:01.631Z,102858.94
2023-01-21T15:42:48.013Z,102863.44
2023-01-21T15:45:35.730Z,102869.56
2023-01-21T15:48:41.706Z,102867.91
2023-01-21T15:51:30.969Z,102864.47
2023-01-21T15:54:21.158Z,102866.31
2023-01-21T15:57:07.557Z,102853.91
2023-01-21T16:00:09.297Z,102853.94
2023-01-21T16:02:56.051Z,102853.91
2023-01-21T16:05:38.849Z,102854.00
2023-01-21T16:08:26.399Z,102849.50
2023-01-21T16:11:17.437Z,102858.47
2023-01-21T16:13:58.812Z,102854.03
2023-01-21T16:16:53.425Z,102847.03
2023-01-21T16:19:28.698Z,102854.13
2023-01-21T16:22:05.108Z,102847.06
2023-01-21T16:24:39.631Z,102846.97
2023-01-21T16:27:20.054Z,102844.31
2023-01-21T16:29:48.467Z,102840.03
2023-01-21T16:32:21.742Z,102840.78
2023-01-21T16:34:51.714Z,102845.28
2023-01-21T16:37:23.840Z,102842.69
2023-01-21T16:39:57.594Z,102847.06
2023-01-21T16:42:46.772Z,102848.88
2023-01-21T16:45:20.058Z,102832.19
2023-01-21T16:47:57.647Z,102838.41
2023-01-21T16:50:32.021Z,102832.28
2023-01-21T16:53:08.888Z,102843.69
2023-01-21T16:55:47.001Z,102845.50
2023-01-21T16:58:29.705Z,102853.50
2023-01-21T17:01:13.562Z,102854.56
2023-01-21T17:03:42.808Z,102843.88
2023-01-21T17:06:21.216Z,102858.09
2023-01-21T17:08:55.333Z,102852.78
2023-01-21T17:11:24.692Z,102861.78
2023-01-21T17:13:54.236Z,102861.84
2023-01-21T17:16:30.300Z,102867.00
2023-01-21T17:19:04.350Z,102872.28
2023-01-21T17:21:43.765Z,102879.44
2023-01-21T17:24:22.149Z,102873.31
2023-01-21T17:26:54.645Z,102879.44
2023-01-21T17:29:28.339Z,102866.28
2023-01-21T17:31:59.621Z,102873.25
2023-01-21T17:34:31.085Z,102870.47
2023-01-21T17:37:03.192Z,102863.44
2023-01-21T17:40:02.748Z,102877.59
2023-01-21T17:42:40.437Z,102881.13
2023-01-21T17:45:23.983Z,102880.22
2023-01-21T17:48:08.600Z,102889.94
2023-01-21T17:50:38.275Z,102883.78
2023-01-21T17:53:20.963Z,102884.66
2023-01-21T17:56:01.067Z,102881.03
2023-01-21T17:58:46.960Z,102879.28
2023-01-21T18:01:18.964Z,102883.78
2023-01-21T18:03:48.071Z,102889.09
2023-01-21T18:06:26.007Z,102881.13
2023-01-21T18:08:57.874Z,102881.03
2023-01-21T18:11:26.575Z,102882.06
2023-01-21T18:13:55.351Z,102881.94
2023-01-21T18:16:23.878Z,102889.88
2023-01-21T18:18:54.285Z,102889.97
2023-01-21T18:21:23.237Z,102878.53
2023-01-21T18:23:51.648Z,102884.59
2023-01-21T18:26:31.476Z,102874.06
2023-01-21T18:29:00.887Z,102878.38
2023-01-21T18:31:29.276Z,102875.81
2023-01-21T18:33:57.953Z,102881.19
2023-01-21T18:36:29.922Z,102882.16
2023-01-21T18:38:58.303Z,102881.25
2023-01-21T18:41:27.964Z,102875.88
2023-01-21T18:43:58.940Z,102871.44
2023-01-21T18:46:27.729Z,102888.13
2023-01-21T18:48:56.279Z,102884.53
2023-01-21T18:51:24.892Z,102880.09
2023-01-21T18:53:53.687Z,102878.47
2023-01-21T18:56:22.816Z,102876.66
2023-01-21T18:58:52.501Z,102863.38
2023-01-21T19:01:23.750Z,102874.06
2023-01-21T19:03:55.439Z,102877.59
2023-01-21T19:06:26.216Z,102878.47
2023-01-21T19:08:55.461Z,102889.97
2023-01-21T19:11:24.280Z,102875.91
2023-01-21T19:13:54.432Z,102873.31
2023-01-21T19:16:25.254Z,102874.22
2023-01-21T19:18:54.615Z,102880.41
2023-01-21T19:21:23.148Z,102884.81
2023-01-21T19:23:52.495Z,102882.16
2023-01-21T19:26:21.995Z,102875.09
2023-01-21T19:28:51.601Z,102881.28
2023-01-21T19:31:22.237Z,102873.31
2023-01-21T19:33:51.304Z,102871.44
2023-01-21T19:36:25.951Z,102893.56
2023-01-21T19:38:59.665Z,102884.69
2023-01-21T19:41:29.407Z,102875.00
2023-01-21T19:43:58.040Z,102887.38
2023-01-21T19:46:29.671Z,102875.97
2023-01-21T19:49:00.878Z,102879.50
2023-01-21T19:51:32.072Z,102876.84
2023-01-21T19:54:01.129Z,102884.81
2023-01-21T19:56:30.426Z,102891.81
2023-01-21T19:58:59.820Z,102886.50
2023-01-21T20:01:30.885Z,102892.75
2023-01-21T20:04:01.083Z,102891.81
2023-01-21T20:06:40.545Z,102895.28
2023-01-21T20:09:19.130Z,102900.63
2023-01-21T20:11:48.678Z,102890.88
2023-01-21T20:14:18.991Z,102900.63
2023-01-21T20:16:53.304Z,102888.34
2023-01-21T20:19:23.712Z,102891.78
2023-01-21T20:22:02.145Z,102907.63
2023-01-21T20:24:34.084Z,102909.41
2023-01-21T20:27:08.588Z,102903.34
2023-01-21T20:29:44.401Z,102904.16
2023-01-21T20:32:14.880Z,102891.72
2023-01-21T20:34:43.589Z,102896.97
2023-01-21T20:37:16.726Z,102898.78
2023-01-21T20:39:50.242Z,102915.63
2023-01-21T20:42:20.677Z,102907.69
2023-01-21T20:44:49.046Z,102902.34
2023-01-21T20:47:32.477Z,102899.69
2023-01-21T20:50:17.390Z,102906.81
2023-01-21T20:52:46.422Z,102920.00
2023-01-21T20:55:20.828Z,102914.69
2023-01-21T20:57:49.722Z,102912.03
2023-01-21T21:00:21.833Z,102926.19
2023-01-21T21:02:51.729Z,102924.41
2023-01-21T21:05:20.483Z,102926.19
2023-01-21T21:07:49.179Z,102927.06
2023-01-21T21:10:25.421Z,102929.72
2023-01-21T21:12:55.602Z,102940.22
2023-01-21T21:15:24.121Z,102923.59
2023-01-21T21:17:53.918Z,102931.53
2023-01-21T21:20:26.728Z,102919.13
2023-01-21T21:22:55.614Z,102929.72
2023-01-21T21:25:27.635Z,102920.88
2023-01-21T21:27:57.206Z,102916.47
2023-01-21T21:30:28.722Z,102913.75
2023-01-21T21:33:00.953Z,102915.50
2023-01-21T21:35:32.388Z,102916.41
2023-01-21T21:38:05.893Z,102905.78
2023-01-21T21:40:35.833Z,102917.25
2023-01-21T21:43:18.543Z,102898.63
2023-01-21T21:46:01.171Z,102906.63
2023-01-21T21:48:42.521Z,102914.69
2023-01-21T21:51:13.890Z,102898.66
2023-01-21T21:53:43.107Z,102895.19
2023-01-21T21:56:16.712Z,102902.25
2023-01-21T21:58:46.140Z,102910.25
2023-01-21T22:01:19.477Z,102907.53
2023-01-21T22:03:50.127Z,102901.31
2023-01-21T22:06:20.844Z,102896.88
2023-01-21T22:08:50.365Z,102886.28
2023-01-21T22:11:22.339Z,102912.78
2023-01-21T22:13:53.455Z,102911.91
2023-01-21T22:16:25.511Z,102917.13
2023-01-21T22:18:57.745Z,102923.38
2023-01-21T22:21:28.876Z,102914.56
2023-01-21T22:24:00.202Z,102916.31
2023-01-21T22:26:30.029Z,102922.53
2023-01-21T22:28:59.111Z,102927.88
2023-01-21T22:31:31.324Z,102911.09
2023-01-21T22:34:02.123Z,102918.25
2023-01-21T22:36:32.274Z,102916.63
2023-01-21T22:39:01.279Z,102908.59
2023-01-21T22:41:30.779Z,102911.31
2023-01-21T22:43:59.775Z,102906.97
2023-01-21T22:46:33.916Z,102907.91
2023-01-21T22:49:04.259Z,102900.72
2023-01-21T22:51:33.132Z,102893.66
2023-01-21T22:54:02.250Z,102897.09
2023-01-21T22:56:49.955Z,102894.47
2023-01-21T22:59:19.564Z,102891.88
2023-01-21T23:01:51.354Z,102885.63
2023-01-21T23:04:22.061Z,102886.50
2023-01-21T23:06:56.079Z,102889.09
2023-01-21T23:09:24.543Z,102893.50
2023-01-21T23:11:53.403Z,102896.16
2023-01-21T23:14:21.941Z,102893.50
2023-01-21T23:16:52.531Z,102897.00
2023-01-21T23:19:22.608Z,102890.78
2023-01-21T23:21:51.156Z,102886.34
2023-01-21T23:24:20.051Z,102893.38
2023-01-21T23:26:48.427Z,102890.72
2023-01-21T23:29:18.141Z,102886.28
2023-01-21T23:31:48.752Z,102891.50
2023-01-21T23:34:22.880Z,102894.13
2023-01-21T23:36:52.641Z,102883.59
2023-01-21T23:39:20.949Z,102870.22
2023-01-21T23:41:49.253Z,102887.00
2023-01-21T23:44:20.740Z,102886.03
2023-01-21T23:46:49.135Z,102880.69
2023-01-21T23:49:20.651Z,102888.69
2023-01-21T23:51:50.343Z,102889.50
2023-01-21T23:54:22.301Z,102878.94
2023-01-21T23:56:50.728Z,102868.16
2023-01-21T23:59:20.757Z,102855.66
